sensor_id;sensor_type;location;lat;lon;timestamp;P1;durP1;ratioP1;P2;durP2;ratioP2
42616;SDS011;28250;52.320;0.360;2023-06-19T00:00:27;13.38;;;8.63;;
42616;SDS011;28250;52.320;0.360;2023-06-19T00:02:55;9.63;;;7.55;;
42616;SDS011;28250;52.320;0.360;2023-06-19T00:05:21;13.45;;;7.97;;
42616;SDS011;28250;52.320;0.360;2023-06-19T00:07:51;11.93;;;8.65;;
42616;SDS011;28250;52.320;0.360;2023-06-19T00:10:17;10.57;;;8.32;;
42616;SDS011;28250;52.320;0.360;2023-06-19T00:12:43;10.93;;;8.17;;
42616;SDS011;28250;52.320;0.360;2023-06-19T00:15:10;12.17;;;8.67;;
42616;SDS011;28250;52.320;0.360;2023-06-19T00:17:37;11.13;;;8.77;;
42616;SDS011;28250;52.320;0.360;2023-06-19T00:20:04;12.80;;;8.77;;
42616;SDS011;28250;52.320;0.360;2023-06-19T00:24:57;13.57;;;9.20;;
42616;SDS011;28250;52.320;0.360;2023-06-19T00:29:51;13.10;;;9.77;;
42616;SDS011;28250;52.320;0.360;2023-06-19T00:32:18;13.63;;;9.83;;
42616;SDS011;28250;52.320;0.360;2023-06-19T00:34:45;13.68;;;9.38;;
42616;SDS011;28250;52.320;0.360;2023-06-19T00:37:11;11.85;;;9.25;;
42616;SDS011;28250;52.320;0.360;2023-06-19T00:39:39;15.00;;;10.07;;
42616;SDS011;28250;52.320;0.360;2023-06-19T00:42:06;15.85;;;10.63;;
42616;SDS011;28250;52.320;0.360;2023-06-19T00:44:32;18.43;;;10.37;;
42616;SDS011;28250;52.320;0.360;2023-06-19T00:47:00;14.77;;;10.10;;
42616;SDS011;28250;52.320;0.360;2023-06-19T00:49:28;14.82;;;10.85;;
42616;SDS011;28250;52.320;0.360;2023-06-19T00:54:21;16.85;;;10.98;;
42616;SDS011;28250;52.320;0.360;2023-06-19T00:56:48;14.70;;;10.50;;
42616;SDS011;28250;52.320;0.360;2023-06-19T00:59:17;16.48;;;11.43;;
42616;SDS011;28250;52.320;0.360;2023-06-19T01:01:44;20.27;;;12.07;;
42616;SDS011;28250;52.320;0.360;2023-06-19T01:04:12;16.58;;;11.63;;
42616;SDS011;28250;52.320;0.360;2023-06-19T01:06:55;17.05;;;11.93;;
42616;SDS011;28250;52.320;0.360;2023-06-19T01:09:29;17.77;;;11.85;;
42616;SDS011;28250;52.320;0.360;2023-06-19T01:12:01;16.95;;;11.93;;
42616;SDS011;28250;52.320;0.360;2023-06-19T01:14:35;18.67;;;12.48;;
42616;SDS011;28250;52.320;0.360;2023-06-19T01:17:05;18.05;;;12.50;;
42616;SDS011;28250;52.320;0.360;2023-06-19T01:19:32;19.10;;;12.90;;
42616;SDS011;28250;52.320;0.360;2023-06-19T01:22:01;17.73;;;12.67;;
42616;SDS011;28250;52.320;0.360;2023-06-19T01:24:28;17.88;;;12.18;;
42616;SDS011;28250;52.320;0.360;2023-06-19T01:26:55;16.80;;;12.10;;
42616;SDS011;28250;52.320;0.360;2023-06-19T01:29:21;21.50;;;12.83;;
42616;SDS011;28250;52.320;0.360;2023-06-19T01:31:50;21.10;;;12.67;;
42616;SDS011;28250;52.320;0.360;2023-06-19T01:34:25;20.48;;;13.88;;
42616;SDS011;28250;52.320;0.360;2023-06-19T01:36:52;19.65;;;13.50;;
42616;SDS011;28250;52.320;0.360;2023-06-19T01:39:22;20.15;;;13.35;;
42616;SDS011;28250;52.320;0.360;2023-06-19T01:41:49;21.30;;;13.18;;
42616;SDS011;28250;52.320;0.360;2023-06-19T01:44:16;18.55;;;12.90;;
42616;SDS011;28250;52.320;0.360;2023-06-19T01:46:47;21.60;;;12.88;;
42616;SDS011;28250;52.320;0.360;2023-06-19T01:49:15;17.98;;;13.27;;
42616;SDS011;28250;52.320;0.360;2023-06-19T01:51:42;19.90;;;13.68;;
42616;SDS011;28250;52.320;0.360;2023-06-19T01:54:08;19.10;;;12.23;;
42616;SDS011;28250;52.320;0.360;2023-06-19T01:56:35;19.08;;;12.60;;
42616;SDS011;28250;52.320;0.360;2023-06-19T01:59:02;16.05;;;11.30;;
42616;SDS011;28250;52.320;0.360;2023-06-19T02:01:29;16.02;;;11.38;;
42616;SDS011;28250;52.320;0.360;2023-06-19T02:03:55;15.77;;;11.90;;
42616;SDS011;28250;52.320;0.360;2023-06-19T02:06:22;17.52;;;12.88;;
42616;SDS011;28250;52.320;0.360;2023-06-19T02:08:48;18.45;;;12.48;;
42616;SDS011;28250;52.320;0.360;2023-06-19T02:11:14;18.27;;;12.27;;
42616;SDS011;28250;52.320;0.360;2023-06-19T02:13:41;23.67;;;13.10;;
42616;SDS011;28250;52.320;0.360;2023-06-19T02:16:26;21.21;;;12.96;;
42616;SDS011;28250;52.320;0.360;2023-06-19T02:18:54;18.00;;;12.45;;
42616;SDS011;28250;52.320;0.360;2023-06-19T02:21:22;16.65;;;11.95;;
42616;SDS011;28250;52.320;0.360;2023-06-19T02:23:50;20.27;;;13.27;;
42616;SDS011;28250;52.320;0.360;2023-06-19T02:26:17;22.07;;;13.00;;
42616;SDS011;28250;52.320;0.360;2023-06-19T02:28:45;18.30;;;13.13;;
42616;SDS011;28250;52.320;0.360;2023-06-19T02:31:12;20.33;;;12.93;;
42616;SDS011;28250;52.320;0.360;2023-06-19T02:33:38;20.80;;;13.38;;
42616;SDS011;28250;52.320;0.360;2023-06-19T02:36:05;20.00;;;13.13;;
42616;SDS011;28250;52.320;0.360;2023-06-19T02:38:31;19.90;;;12.93;;
42616;SDS011;28250;52.320;0.360;2023-06-19T02:40:57;21.27;;;12.90;;
42616;SDS011;28250;52.320;0.360;2023-06-19T02:43:26;18.65;;;12.88;;
42616;SDS011;28250;52.320;0.360;2023-06-19T02:45:52;18.83;;;13.05;;
42616;SDS011;28250;52.320;0.360;2023-06-19T02:48:19;19.08;;;12.30;;
42616;SDS011;28250;52.320;0.360;2023-06-19T02:50:45;20.20;;;13.02;;
42616;SDS011;28250;52.320;0.360;2023-06-19T02:53:11;22.75;;;13.90;;
42616;SDS011;28250;52.320;0.360;2023-06-19T02:55:38;19.25;;;12.90;;
42616;SDS011;28250;52.320;0.360;2023-06-19T02:58:04;19.52;;;13.18;;
42616;SDS011;28250;52.320;0.360;2023-06-19T03:00:31;19.45;;;12.75;;
42616;SDS011;28250;52.320;0.360;2023-06-19T03:02:57;17.75;;;12.38;;
42616;SDS011;28250;52.320;0.360;2023-06-19T03:05:24;20.85;;;13.00;;
42616;SDS011;28250;52.320;0.360;2023-06-19T03:07:52;21.40;;;12.93;;
42616;SDS011;28250;52.320;0.360;2023-06-19T03:10:18;19.27;;;13.37;;
42616;SDS011;28250;52.320;0.360;2023-06-19T03:12:45;19.77;;;13.40;;
42616;SDS011;28250;52.320;0.360;2023-06-19T03:15:11;22.73;;;12.98;;
42616;SDS011;28250;52.320;0.360;2023-06-19T03:17:41;22.27;;;12.90;;
42616;SDS011;28250;52.320;0.360;2023-06-19T03:20:10;19.70;;;13.43;;
42616;SDS011;28250;52.320;0.360;2023-06-19T03:22:39;21.95;;;12.70;;
42616;SDS011;28250;52.320;0.360;2023-06-19T03:25:07;24.08;;;14.27;;
42616;SDS011;28250;52.320;0.360;2023-06-19T03:27:34;21.17;;;12.30;;
42616;SDS011;28250;52.320;0.360;2023-06-19T03:32:37;19.35;;;12.75;;
42616;SDS011;28250;52.320;0.360;2023-06-19T03:35:03;20.85;;;12.27;;
42616;SDS011;28250;52.320;0.360;2023-06-19T03:37:33;23.98;;;13.18;;
42616;SDS011;28250;52.320;0.360;2023-06-19T03:40:02;22.15;;;13.63;;
42616;SDS011;28250;52.320;0.360;2023-06-19T03:42:34;20.27;;;13.57;;
42616;SDS011;28250;52.320;0.360;2023-06-19T03:45:00;23.25;;;13.68;;
42616;SDS011;28250;52.320;0.360;2023-06-19T03:47:27;22.67;;;14.20;;
42616;SDS011;28250;52.320;0.360;2023-06-19T03:49:53;20.42;;;13.25;;
42616;SDS011;28250;52.320;0.360;2023-06-19T03:52:19;23.27;;;14.40;;
42616;SDS011;28250;52.320;0.360;2023-06-19T03:54:46;20.55;;;13.60;;
42616;SDS011;28250;52.320;0.360;2023-06-19T03:57:12;24.92;;;14.93;;
42616;SDS011;28250;52.320;0.360;2023-06-19T03:59:39;22.60;;;14.30;;
42616;SDS011;28250;52.320;0.360;2023-06-19T04:02:05;22.00;;;14.20;;
42616;SDS011;28250;52.320;0.360;2023-06-19T04:04:31;23.48;;;14.00;;
42616;SDS011;28250;52.320;0.360;2023-06-19T04:06:58;23.45;;;14.00;;
42616;SDS011;28250;52.320;0.360;2023-06-19T04:09:24;23.58;;;14.43;;
42616;SDS011;28250;52.320;0.360;2023-06-19T04:11:52;21.98;;;13.90;;
42616;SDS011;28250;52.320;0.360;2023-06-19T04:14:19;25.00;;;15.05;;
42616;SDS011;28250;52.320;0.360;2023-06-19T04:16:49;25.20;;;14.73;;
42616;SDS011;28250;52.320;0.360;2023-06-19T04:19:15;24.92;;;14.75;;
42616;SDS011;28250;52.320;0.360;2023-06-19T04:21:42;24.25;;;14.52;;
42616;SDS011;28250;52.320;0.360;2023-06-19T04:24:08;29.23;;;15.05;;
42616;SDS011;28250;52.320;0.360;2023-06-19T04:26:35;27.13;;;15.73;;
42616;SDS011;28250;52.320;0.360;2023-06-19T04:29:02;26.57;;;16.03;;
42616;SDS011;28250;52.320;0.360;2023-06-19T04:31:30;28.42;;;16.75;;
42616;SDS011;28250;52.320;0.360;2023-06-19T04:33:57;30.52;;;16.80;;
42616;SDS011;28250;52.320;0.360;2023-06-19T04:36:23;24.85;;;15.73;;
42616;SDS011;28250;52.320;0.360;2023-06-19T04:38:49;27.33;;;16.45;;
42616;SDS011;28250;52.320;0.360;2023-06-19T04:41:18;30.23;;;16.40;;
42616;SDS011;28250;52.320;0.360;2023-06-19T04:43:45;27.63;;;15.70;;
42616;SDS011;28250;52.320;0.360;2023-06-19T04:46:11;28.15;;;16.20;;
42616;SDS011;28250;52.320;0.360;2023-06-19T04:48:37;29.17;;;16.60;;
42616;SDS011;28250;52.320;0.360;2023-06-19T04:51:05;27.35;;;16.35;;
42616;SDS011;28250;52.320;0.360;2023-06-19T04:53:32;25.48;;;15.30;;
42616;SDS011;28250;52.320;0.360;2023-06-19T04:55:58;29.15;;;15.40;;
42616;SDS011;28250;52.320;0.360;2023-06-19T04:58:24;29.02;;;15.27;;
42616;SDS011;28250;52.320;0.360;2023-06-19T05:00:51;28.40;;;15.73;;
42616;SDS011;28250;52.320;0.360;2023-06-19T05:03:17;22.70;;;14.10;;
42616;SDS011;28250;52.320;0.360;2023-06-19T05:05:44;29.65;;;15.38;;
42616;SDS011;28250;52.320;0.360;2023-06-19T05:08:12;23.98;;;15.07;;
42616;SDS011;28250;52.320;0.360;2023-06-19T05:10:38;28.10;;;15.48;;
42616;SDS011;28250;52.320;0.360;2023-06-19T05:13:05;27.38;;;15.73;;
42616;SDS011;28250;52.320;0.360;2023-06-19T05:15:31;23.80;;;14.77;;
42616;SDS011;28250;52.320;0.360;2023-06-19T05:17:57;25.00;;;14.48;;
42616;SDS011;28250;52.320;0.360;2023-06-19T05:20:24;23.17;;;14.57;;
42616;SDS011;28250;52.320;0.360;2023-06-19T05:22:50;26.88;;;14.15;;
42616;SDS011;28250;52.320;0.360;2023-06-19T05:25:17;20.73;;;13.43;;
42616;SDS011;28250;52.320;0.360;2023-06-19T05:27:43;26.27;;;13.95;;
42616;SDS011;28250;52.320;0.360;2023-06-19T05:30:09;22.73;;;13.38;;
42616;SDS011;28250;52.320;0.360;2023-06-19T05:32:36;26.73;;;12.65;;
42616;SDS011;28250;52.320;0.360;2023-06-19T05:35:03;23.02;;;11.80;;
42616;SDS011;28250;52.320;0.360;2023-06-19T05:37:29;22.90;;;12.10;;
42616;SDS011;28250;52.320;0.360;2023-06-19T05:39:56;23.63;;;11.98;;
42616;SDS011;28250;52.320;0.360;2023-06-19T05:42:22;22.40;;;12.32;;
42616;SDS011;28250;52.320;0.360;2023-06-19T05:44:49;20.50;;;11.48;;
42616;SDS011;28250;52.320;0.360;2023-06-19T05:47:15;22.67;;;12.35;;
42616;SDS011;28250;52.320;0.360;2023-06-19T05:52:09;23.97;;;11.37;;
42616;SDS011;28250;52.320;0.360;2023-06-19T05:54:35;18.60;;;11.43;;
42616;SDS011;28250;52.320;0.360;2023-06-19T05:57:01;24.48;;;11.63;;
42616;SDS011;28250;52.320;0.360;2023-06-19T05:59:28;20.00;;;11.77;;
42616;SDS011;28250;52.320;0.360;2023-06-19T06:01:54;25.27;;;12.18;;
42616;SDS011;28250;52.320;0.360;2023-06-19T06:04:21;20.15;;;11.23;;
42616;SDS011;28250;52.320;0.360;2023-06-19T06:06:48;21.00;;;11.60;;
42616;SDS011;28250;52.320;0.360;2023-06-19T06:09:14;19.65;;;11.63;;
42616;SDS011;28250;52.320;0.360;2023-06-19T06:11:41;19.10;;;10.35;;
42616;SDS011;28250;52.320;0.360;2023-06-19T06:14:07;16.83;;;10.43;;
42616;SDS011;28250;52.320;0.360;2023-06-19T06:16:34;20.85;;;11.07;;
42616;SDS011;28250;52.320;0.360;2023-06-19T06:19:00;23.42;;;11.13;;
42616;SDS011;28250;52.320;0.360;2023-06-19T06:21:27;17.80;;;10.43;;
42616;SDS011;28250;52.320;0.360;2023-06-19T06:23:53;20.80;;;11.05;;
42616;SDS011;28250;52.320;0.360;2023-06-19T06:26:20;17.37;;;10.00;;
42616;SDS011;28250;52.320;0.360;2023-06-19T06:28:47;19.17;;;10.35;;
42616;SDS011;28250;52.320;0.360;2023-06-19T06:31:13;39.05;;;12.05;;
42616;SDS011;28250;52.320;0.360;2023-06-19T06:33:40;19.87;;;11.20;;
42616;SDS011;28250;52.320;0.360;2023-06-19T06:36:06;17.98;;;10.88;;
42616;SDS011;28250;52.320;0.360;2023-06-19T06:38:33;19.40;;;10.45;;
42616;SDS011;28250;52.320;0.360;2023-06-19T06:40:59;20.23;;;9.68;;
42616;SDS011;28250;52.320;0.360;2023-06-19T06:43:25;19.63;;;10.80;;
42616;SDS011;28250;52.320;0.360;2023-06-19T06:45:52;16.48;;;9.57;;
42616;SDS011;28250;52.320;0.360;2023-06-19T06:48:18;19.45;;;10.18;;
42616;SDS011;28250;52.320;0.360;2023-06-19T06:53:12;16.77;;;8.97;;
42616;SDS011;28250;52.320;0.360;2023-06-19T06:55:38;16.75;;;10.05;;
42616;SDS011;28250;52.320;0.360;2023-06-19T06:58:05;15.73;;;9.95;;
42616;SDS011;28250;52.320;0.360;2023-06-19T07:00:31;21.33;;;11.02;;
42616;SDS011;28250;52.320;0.360;2023-06-19T07:02:58;16.48;;;9.82;;
42616;SDS011;28250;52.320;0.360;2023-06-19T07:05:24;15.13;;;9.43;;
42616;SDS011;28250;52.320;0.360;2023-06-19T07:07:50;15.25;;;9.32;;
42616;SDS011;28250;52.320;0.360;2023-06-19T07:10:17;16.40;;;9.48;;
42616;SDS011;28250;52.320;0.360;2023-06-19T07:12:44;14.63;;;8.93;;
42616;SDS011;28250;52.320;0.360;2023-06-19T07:15:11;20.08;;;9.90;;
42616;SDS011;28250;52.320;0.360;2023-06-19T07:17:37;18.52;;;9.15;;
42616;SDS011;28250;52.320;0.360;2023-06-19T07:20:04;17.15;;;9.88;;
42616;SDS011;28250;52.320;0.360;2023-06-19T07:22:31;15.55;;;8.82;;
42616;SDS011;28250;52.320;0.360;2023-06-19T07:24:58;17.97;;;8.17;;
42616;SDS011;28250;52.320;0.360;2023-06-19T07:27:24;16.77;;;8.80;;
42616;SDS011;28250;52.320;0.360;2023-06-19T07:29:52;13.93;;;8.55;;
42616;SDS011;28250;52.320;0.360;2023-06-19T07:32:19;16.73;;;8.10;;
42616;SDS011;28250;52.320;0.360;2023-06-19T07:34:45;14.73;;;8.90;;
42616;SDS011;28250;52.320;0.360;2023-06-19T07:37:12;16.55;;;8.98;;
42616;SDS011;28250;52.320;0.360;2023-06-19T07:39:46;12.05;;;7.95;;
42616;SDS011;28250;52.320;0.360;2023-06-19T07:42:15;12.85;;;7.90;;
42616;SDS011;28250;52.320;0.360;2023-06-19T07:44:42;15.93;;;8.15;;
42616;SDS011;28250;52.320;0.360;2023-06-19T07:47:09;13.88;;;8.25;;
42616;SDS011;28250;52.320;0.360;2023-06-19T07:49:35;14.93;;;8.55;;
42616;SDS011;28250;52.320;0.360;2023-06-19T07:52:02;16.37;;;8.13;;
42616;SDS011;28250;52.320;0.360;2023-06-19T07:56:56;17.98;;;8.52;;
42616;SDS011;28250;52.320;0.360;2023-06-19T07:59:22;12.88;;;7.60;;
42616;SDS011;28250;52.320;0.360;2023-06-19T08:01:49;14.40;;;7.95;;
42616;SDS011;28250;52.320;0.360;2023-06-19T08:04:15;16.30;;;7.95;;
42616;SDS011;28250;52.320;0.360;2023-06-19T08:06:42;15.85;;;8.32;;
42616;SDS011;28250;52.320;0.360;2023-06-19T08:09:08;13.82;;;7.90;;
42616;SDS011;28250;52.320;0.360;2023-06-19T08:11:34;14.82;;;7.30;;
42616;SDS011;28250;52.320;0.360;2023-06-19T08:14:02;11.00;;;7.72;;
42616;SDS011;28250;52.320;0.360;2023-06-19T08:16:29;12.70;;;6.97;;
42616;SDS011;28250;52.320;0.360;2023-06-19T08:18:55;13.15;;;7.05;;
42616;SDS011;28250;52.320;0.360;2023-06-19T08:21:21;11.90;;;6.82;;
42616;SDS011;28250;52.320;0.360;2023-06-19T08:23:48;12.52;;;6.90;;
42616;SDS011;28250;52.320;0.360;2023-06-19T08:26:14;14.77;;;7.00;;
42616;SDS011;28250;52.320;0.360;2023-06-19T08:28:41;11.68;;;6.47;;
42616;SDS011;28250;52.320;0.360;2023-06-19T08:31:07;15.45;;;8.23;;
42616;SDS011;28250;52.320;0.360;2023-06-19T08:33:34;11.87;;;6.80;;
42616;SDS011;28250;52.320;0.360;2023-06-19T08:36:00;11.90;;;8.30;;
42616;SDS011;28250;52.320;0.360;2023-06-19T08:38:27;13.97;;;7.27;;
42616;SDS011;28250;52.320;0.360;2023-06-19T08:40:53;13.10;;;7.18;;
42616;SDS011;28250;52.320;0.360;2023-06-19T08:43:20;13.32;;;7.70;;
42616;SDS011;28250;52.320;0.360;2023-06-19T08:46:01;14.17;;;8.30;;
42616;SDS011;28250;52.320;0.360;2023-06-19T08:48:39;12.10;;;6.65;;
42616;SDS011;28250;52.320;0.360;2023-06-19T08:51:06;10.07;;;6.35;;
42616;SDS011;28250;52.320;0.360;2023-06-19T08:53:34;12.13;;;6.35;;
42616;SDS011;28250;52.320;0.360;2023-06-19T08:56:04;12.68;;;6.57;;
42616;SDS011;28250;52.320;0.360;2023-06-19T08:58:30;11.40;;;5.90;;
42616;SDS011;28250;52.320;0.360;2023-06-19T09:00:58;10.90;;;5.95;;
42616;SDS011;28250;52.320;0.360;2023-06-19T09:03:24;11.85;;;6.47;;
42616;SDS011;28250;52.320;0.360;2023-06-19T09:05:51;13.68;;;6.55;;
42616;SDS011;28250;52.320;0.360;2023-06-19T09:08:19;12.65;;;5.93;;
42616;SDS011;28250;52.320;0.360;2023-06-19T09:10:58;12.38;;;6.75;;
42616;SDS011;28250;52.320;0.360;2023-06-19T09:13:26;12.85;;;6.30;;
42616;SDS011;28250;52.320;0.360;2023-06-19T09:16:00;14.60;;;6.22;;
42616;SDS011;28250;52.320;0.360;2023-06-19T09:18:30;12.35;;;6.72;;
42616;SDS011;28250;52.320;0.360;2023-06-19T09:21:14;11.95;;;5.88;;
42616;SDS011;28250;52.320;0.360;2023-06-19T09:23:45;10.55;;;5.95;;
42616;SDS011;28250;52.320;0.360;2023-06-19T09:26:16;11.85;;;5.78;;
42616;SDS011;28250;52.320;0.360;2023-06-19T09:28:44;8.70;;;6.03;;
42616;SDS011;28250;52.320;0.360;2023-06-19T09:31:12;9.68;;;6.20;;
42616;SDS011;28250;52.320;0.360;2023-06-19T09:33:39;9.70;;;6.72;;
42616;SDS011;28250;52.320;0.360;2023-06-19T09:36:05;9.00;;;5.40;;
42616;SDS011;28250;52.320;0.360;2023-06-19T09:38:33;8.23;;;5.00;;
42616;SDS011;28250;52.320;0.360;2023-06-19T09:41:09;6.68;;;4.75;;
42616;SDS011;28250;52.320;0.360;2023-06-19T09:43:38;9.25;;;5.15;;
42616;SDS011;28250;52.320;0.360;2023-06-19T09:46:09;10.45;;;5.75;;
42616;SDS011;28250;52.320;0.360;2023-06-19T09:48:40;7.78;;;4.80;;
42616;SDS011;28250;52.320;0.360;2023-06-19T09:51:10;8.82;;;5.22;;
42616;SDS011;28250;52.320;0.360;2023-06-19T09:53:45;11.32;;;5.05;;
42616;SDS011;28250;52.320;0.360;2023-06-19T09:56:12;7.20;;;5.18;;
42616;SDS011;28250;52.320;0.360;2023-06-19T09:58:40;5.95;;;4.95;;
42616;SDS011;28250;52.320;0.360;2023-06-19T10:01:09;8.32;;;4.57;;
42616;SDS011;28250;52.320;0.360;2023-06-19T10:03:36;6.85;;;4.43;;
42616;SDS011;28250;52.320;0.360;2023-06-19T10:06:05;8.23;;;4.47;;
42616;SDS011;28250;52.320;0.360;2023-06-19T10:08:38;5.97;;;4.33;;
42616;SDS011;28250;52.320;0.360;2023-06-19T10:11:05;6.60;;;4.32;;
42616;SDS011;28250;52.320;0.360;2023-06-19T10:13:33;6.72;;;4.72;;
42616;SDS011;28250;52.320;0.360;2023-06-19T10:16:01;6.30;;;4.72;;
42616;SDS011;28250;52.320;0.360;2023-06-19T10:18:28;5.78;;;4.10;;
42616;SDS011;28250;52.320;0.360;2023-06-19T10:20:54;8.75;;;5.13;;
42616;SDS011;28250;52.320;0.360;2023-06-19T10:23:22;7.68;;;4.63;;
42616;SDS011;28250;52.320;0.360;2023-06-19T10:28:23;7.70;;;5.10;;
42616;SDS011;28250;52.320;0.360;2023-06-19T10:30:58;5.72;;;4.00;;
42616;SDS011;28250;52.320;0.360;2023-06-19T10:33:28;5.10;;;3.90;;
42616;SDS011;28250;52.320;0.360;2023-06-19T10:35:57;5.20;;;3.95;;
42616;SDS011;28250;52.320;0.360;2023-06-19T10:38:27;6.22;;;3.80;;
42616;SDS011;28250;52.320;0.360;2023-06-19T10:40:54;4.68;;;3.83;;
42616;SDS011;28250;52.320;0.360;2023-06-19T10:43:21;7.88;;;4.38;;
42616;SDS011;28250;52.320;0.360;2023-06-19T10:45:53;7.13;;;4.28;;
42616;SDS011;28250;52.320;0.360;2023-06-19T10:48:20;5.45;;;3.95;;
42616;SDS011;28250;52.320;0.360;2023-06-19T10:50:50;7.18;;;4.50;;
42616;SDS011;28250;52.320;0.360;2023-06-19T10:53:23;6.80;;;4.30;;
42616;SDS011;28250;52.320;0.360;2023-06-19T10:55:57;6.20;;;3.58;;
42616;SDS011;28250;52.320;0.360;2023-06-19T10:58:25;7.50;;;4.68;;
42616;SDS011;28250;52.320;0.360;2023-06-19T11:00:51;7.30;;;4.82;;
42616;SDS011;28250;52.320;0.360;2023-06-19T11:03:21;6.43;;;4.38;;
42616;SDS011;28250;52.320;0.360;2023-06-19T11:05:47;5.68;;;3.95;;
42616;SDS011;28250;52.320;0.360;2023-06-19T11:08:21;6.38;;;3.90;;
42616;SDS011;28250;52.320;0.360;2023-06-19T11:10:48;5.30;;;3.80;;
42616;SDS011;28250;52.320;0.360;2023-06-19T11:13:15;9.75;;;4.30;;
42616;SDS011;28250;52.320;0.360;2023-06-19T11:15:43;7.68;;;4.50;;
42616;SDS011;28250;52.320;0.360;2023-06-19T11:18:10;6.57;;;4.07;;
42616;SDS011;28250;52.320;0.360;2023-06-19T11:20:46;4.15;;;3.40;;
42616;SDS011;28250;52.320;0.360;2023-06-19T11:23:15;8.52;;;4.63;;
42616;SDS011;28250;52.320;0.360;2023-06-19T11:25:42;10.15;;;4.07;;
42616;SDS011;28250;52.320;0.360;2023-06-19T11:28:12;5.50;;;3.90;;
42616;SDS011;28250;52.320;0.360;2023-06-19T11:30:39;5.03;;;3.88;;
42616;SDS011;28250;52.320;0.360;2023-06-19T11:33:17;5.68;;;3.45;;
42616;SDS011;28250;52.320;0.360;2023-06-19T11:35:48;5.38;;;3.42;;
42616;SDS011;28250;52.320;0.360;2023-06-19T11:38:25;5.05;;;3.28;;
42616;SDS011;28250;52.320;0.360;2023-06-19T11:40:52;7.57;;;4.00;;
42616;SDS011;28250;52.320;0.360;2023-06-19T11:43:25;5.45;;;3.65;;
42616;SDS011;28250;52.320;0.360;2023-06-19T11:45:53;4.60;;;3.17;;
42616;SDS011;28250;52.320;0.360;2023-06-19T11:48:25;6.05;;;3.80;;
42616;SDS011;28250;52.320;0.360;2023-06-19T11:50:52;6.65;;;3.22;;
42616;SDS011;28250;52.320;0.360;2023-06-19T11:53:23;3.97;;;2.95;;
42616;SDS011;28250;52.320;0.360;2023-06-19T11:55:50;6.38;;;3.15;;
42616;SDS011;28250;52.320;0.360;2023-06-19T11:58:16;4.43;;;3.13;;
42616;SDS011;28250;52.320;0.360;2023-06-19T12:00:46;4.15;;;3.25;;
42616;SDS011;28250;52.320;0.360;2023-06-19T12:03:12;4.50;;;2.95;;
42616;SDS011;28250;52.320;0.360;2023-06-19T12:05:39;5.13;;;3.08;;
42616;SDS011;28250;52.320;0.360;2023-06-19T12:08:05;5.97;;;3.30;;
42616;SDS011;28250;52.320;0.360;2023-06-19T12:10:32;6.55;;;3.55;;
42616;SDS011;28250;52.320;0.360;2023-06-19T12:12:59;4.47;;;3.00;;
42616;SDS011;28250;52.320;0.360;2023-06-19T12:15:26;3.72;;;2.85;;
42616;SDS011;28250;52.320;0.360;2023-06-19T12:17:53;4.93;;;3.35;;
42616;SDS011;28250;52.320;0.360;2023-06-19T12:20:19;4.55;;;2.53;;
42616;SDS011;28250;52.320;0.360;2023-06-19T12:22:45;4.72;;;2.75;;
42616;SDS011;28250;52.320;0.360;2023-06-19T12:25:12;6.43;;;2.50;;
42616;SDS011;28250;52.320;0.360;2023-06-19T12:27:38;3.47;;;2.63;;
42616;SDS011;28250;52.320;0.360;2023-06-19T12:30:05;7.90;;;3.10;;
42616;SDS011;28250;52.320;0.360;2023-06-19T12:32:33;4.68;;;3.33;;
42616;SDS011;28250;52.320;0.360;2023-06-19T12:34:59;5.97;;;3.50;;
42616;SDS011;28250;52.320;0.360;2023-06-19T12:37:26;6.67;;;3.97;;
42616;SDS011;28250;52.320;0.360;2023-06-19T12:39:52;6.25;;;4.03;;
42616;SDS011;28250;52.320;0.360;2023-06-19T12:42:19;6.05;;;3.85;;
42616;SDS011;28250;52.320;0.360;2023-06-19T12:44:45;6.20;;;4.10;;
42616;SDS011;28250;52.320;0.360;2023-06-19T12:47:12;10.37;;;4.07;;
42616;SDS011;28250;52.320;0.360;2023-06-19T12:49:38;6.78;;;3.97;;
42616;SDS011;28250;52.320;0.360;2023-06-19T12:52:05;9.77;;;4.25;;
42616;SDS011;28250;52.320;0.360;2023-06-19T12:54:32;7.88;;;4.57;;
42616;SDS011;28250;52.320;0.360;2023-06-19T12:56:58;5.72;;;4.05;;
42616;SDS011;28250;52.320;0.360;2023-06-19T12:59:25;6.22;;;4.40;;
42616;SDS011;28250;52.320;0.360;2023-06-19T13:01:51;7.00;;;3.83;;
42616;SDS011;28250;52.320;0.360;2023-06-19T13:04:17;6.18;;;3.83;;
42616;SDS011;28250;52.320;0.360;2023-06-19T13:06:44;5.78;;;3.80;;
42616;SDS011;28250;52.320;0.360;2023-06-19T13:09:10;7.85;;;4.13;;
42616;SDS011;28250;52.320;0.360;2023-06-19T13:11:37;6.10;;;4.13;;
42616;SDS011;28250;52.320;0.360;2023-06-19T13:14:04;5.82;;;4.00;;
42616;SDS011;28250;52.320;0.360;2023-06-19T13:16:30;6.18;;;3.47;;
42616;SDS011;28250;52.320;0.360;2023-06-19T13:18:57;4.35;;;3.22;;
42616;SDS011;28250;52.320;0.360;2023-06-19T13:21:23;6.43;;;3.67;;
42616;SDS011;28250;52.320;0.360;2023-06-19T13:23:50;5.80;;;3.50;;
42616;SDS011;28250;52.320;0.360;2023-06-19T13:26:16;5.05;;;3.17;;
42616;SDS011;28250;52.320;0.360;2023-06-19T13:28:43;4.32;;;3.67;;
42616;SDS011;28250;52.320;0.360;2023-06-19T13:31:09;7.40;;;3.20;;
42616;SDS011;28250;52.320;0.360;2023-06-19T13:33:35;7.57;;;3.70;;
42616;SDS011;28250;52.320;0.360;2023-06-19T13:36:02;5.15;;;3.25;;
42616;SDS011;28250;52.320;0.360;2023-06-19T13:38:28;5.60;;;3.33;;
42616;SDS011;28250;52.320;0.360;2023-06-19T13:40:56;5.20;;;3.13;;
42616;SDS011;28250;52.320;0.360;2023-06-19T13:43:22;5.60;;;3.03;;
42616;SDS011;28250;52.320;0.360;2023-06-19T13:45:49;5.47;;;3.20;;
42616;SDS011;28250;52.320;0.360;2023-06-19T13:48:15;4.78;;;2.90;;
42616;SDS011;28250;52.320;0.360;2023-06-19T13:50:42;4.55;;;3.15;;
42616;SDS011;28250;52.320;0.360;2023-06-19T13:53:08;4.45;;;3.33;;
42616;SDS011;28250;52.320;0.360;2023-06-19T13:55:34;3.15;;;2.85;;
42616;SDS011;28250;52.320;0.360;2023-06-19T13:58:01;5.05;;;3.08;;
42616;SDS011;28250;52.320;0.360;2023-06-19T14:00:27;6.75;;;3.05;;
42616;SDS011;28250;52.320;0.360;2023-06-19T14:02:53;3.28;;;2.80;;
42616;SDS011;28250;52.320;0.360;2023-06-19T14:05:20;5.15;;;3.20;;
42616;SDS011;28250;52.320;0.360;2023-06-19T14:07:46;6.85;;;3.60;;
42616;SDS011;28250;52.320;0.360;2023-06-19T14:10:13;8.38;;;3.50;;
42616;SDS011;28250;52.320;0.360;2023-06-19T14:12:39;4.80;;;3.33;;
42616;SDS011;28250;52.320;0.360;2023-06-19T14:15:06;5.40;;;3.65;;
42616;SDS011;28250;52.320;0.360;2023-06-19T14:17:33;4.95;;;3.05;;
42616;SDS011;28250;52.320;0.360;2023-06-19T14:19:59;8.10;;;3.03;;
42616;SDS011;28250;52.320;0.360;2023-06-19T14:22:26;5.03;;;3.58;;
42616;SDS011;28250;52.320;0.360;2023-06-19T14:24:52;4.60;;;3.20;;
42616;SDS011;28250;52.320;0.360;2023-06-19T14:27:24;5.22;;;3.10;;
42616;SDS011;28250;52.320;0.360;2023-06-19T14:29:51;4.90;;;2.95;;
42616;SDS011;28250;52.320;0.360;2023-06-19T14:32:19;7.32;;;3.50;;
42616;SDS011;28250;52.320;0.360;2023-06-19T14:34:45;4.57;;;3.10;;
42616;SDS011;28250;52.320;0.360;2023-06-19T14:37:11;5.65;;;2.92;;
42616;SDS011;28250;52.320;0.360;2023-06-19T14:39:38;4.05;;;3.00;;
42616;SDS011;28250;52.320;0.360;2023-06-19T14:42:05;8.63;;;3.20;;
42616;SDS011;28250;52.320;0.360;2023-06-19T14:44:31;8.55;;;2.97;;
42616;SDS011;28250;52.320;0.360;2023-06-19T14:46:58;6.78;;;3.40;;
42616;SDS011;28250;52.320;0.360;2023-06-19T14:49:25;5.03;;;3.28;;
42616;SDS011;28250;52.320;0.360;2023-06-19T14:51:51;7.15;;;3.60;;
42616;SDS011;28250;52.320;0.360;2023-06-19T14:54:17;7.80;;;2.80;;